Decoded Metar for KVAD (VALDOSTA in GA, USA) (IATA:VAD) | Meteo·Mobile Aviation Weather
aviador You're here:

KVAD Decoded Metar

VALDOSTA in GA, USA
Report Time2019-11-20 08:56:00
UTC Time2019-11-20 09:34:24
Flight Rules vfr VFR
WindCalm
Visibility9999 m
Phenomena:N/A
Clouds:N/A
Expected CloudBase > 800 ft AGL from Temp-Dew spread
CeilingNone
Temp08°C (ISA -7)
Dew Point06°C (87% RH)
AAT7.1°C
QNH1017 hPa
Density Alt-561 ft
Elevation233 ft
Report Wrong Elevation
Raw Report
KVAD 200856Z AUTO 00000KT 10SM CLR 08/06 A3004 RMK AO2 SLP175
T00820063 52014 $=

Extra information for KVAD:More info

Metar Taf Metar & Taf Last 4 Metars F.Rules Stats Wind Profile Meteogram Temp Stats Airport Information Weather charts Add Link Nearby VenuesMetar ALERT Operation Metar Decoded Social comments

AIRNAV info for KVAD